Main page
METAR-TAF:

METAR-TAF

Airports :

Çorlu, Turkey

Tekirdağ Çorlu Airport

latitude: 41-08N, longitude: 027-55E, elevation: 173 m

Current weather observation

The report was made 49 minutes ago, at 07:20 UTC
Wind 10 kt from the North
Temperature 5°C
Humidity 56%
Pressure 1029 hPa
Visibility 10 km or more
no clouds below 1500 m and no cumulonimbus

METAR: LTBU 040720Z 01010KT CAVOK 05/M03 Q1029 RMK RWY23 01008KT

Time: 10:09 (08:09 UTC)

Forecast

The report was made 3 hours and 29 minutes ago, at 04:40 UTC
Forecast valid from 04 at 06 UTC to 05 at 06 UTC
Wind 8 kt from the North
Visibility 10 km or more
no clouds below 1500 m and no cumulonimbus

TAF: LTBU 040440Z 0406/0506 35008KT CAVOK

Weather observations and forecasts of more than 4000 airports (METAR and TAF reports).

The available stations are represented by yellow and red dots on the map.

Hover mouse over dot to see the name of the station.

Then click to see weather observations and forecasts.

To change the map : click on the green buttons with a black cross to zoom in, on the green button with a dash to zoom out, or on the green arrows for adjacent maps.


METAR-TAF: